To NAV CANADA Home Page Login to a new session Search on AWWS site Feedback and Comments Disclaimer Vers la page française équivalente Tips FAQ What's new on the site To the Forecasts and Observations / NOTAM section To "File a Flight Plan" website Publications and other links Update of the User's profile FIC Telephone Numbers My Weather Data Folder Route Weather Data Regional Weather Data Local Weather Data To the Forecasts and Observations / NOTAM section
Request Generated 09/03/2015 at 12:47:41 UTC . Weather information available at that time is displayed.

METAR/TAF

MONTREAL/ST-HUBERT/QC    (show WxCam)

METAR CYHU 031200Z AUTO 36009KT 9SM SCT023 22/21 A2990 RMK SLP126
DENSITY ALT 900FT=
SPECI CYHU 031153Z AUTO 36008KT 9SM SCT023 22/21 A2990 RMK SLP125
DENSITY ALT 900FT=
SPECI CYHU 031133Z AUTO 35006KT 8SM BKN023 BKN040 OVC075 22/21 A2990
RMK SLP124 DENSITY ALT 800FT=
SPECI CYHU 031115Z AUTO 34006KT 6SM BR BKN038 BKN075 21/21 A2989 RMK
SLP122 DENSITY ALT 800FT=
METAR CYHU 031100Z AUTO 34005KT 4SM BR SCT034 BKN040 BKN075 21/21
A2989 RMK SLP120 DENSITY ALT 800FT=
METAR CYHU 031000Z AUTO 30003KT 4SM BR FEW075 21/21 A2986 RMK SLP111
DENSITY ALT 800FT=

TAF CYHU 031138Z 0312/0412 VRB03KT P6SM BKN250 TEMPO 0312/0314 3SM BR
FM031400 03010KT P6SM SCT050 BKN250
BECMG 0321/0323 SKC
RMK FCST BASED ON AUTO OBS. NXT FCST BY 031800Z=
Your time UTC time
Weather data provided by Environment Canada and NAV CANADA